createdAt,value
2022-11-01T00:00:05.176Z,543.37
2022-11-01T00:00:15.158Z,543.36
2022-11-01T00:00:25.159Z,543.34
2022-11-01T00:00:35.160Z,543.44
2022-11-01T00:00:45.160Z,543.58
2022-11-01T00:00:55.204Z,543.63
2022-11-01T00:01:05.210Z,543.69
2022-11-01T00:01:15.209Z,543.74
2022-11-01T00:01:25.224Z,543.80
2022-11-01T00:01:35.231Z,543.88
2022-11-01T00:01:45.245Z,543.76
2022-11-01T00:01:55.259Z,543.78
2022-11-01T00:02:05.276Z,543.85
2022-11-01T00:02:15.219Z,543.90
2022-11-01T00:02:25.198Z,543.75
2022-11-01T00:02:35.206Z,543.74
2022-11-01T00:02:45.226Z,543.82
2022-11-01T00:02:55.173Z,543.84
2022-11-01T00:03:05.169Z,543.87
2022-11-01T00:03:15.173Z,543.86
2022-11-01T00:03:25.169Z,543.87
2022-11-01T00:03:35.176Z,543.98
2022-11-01T00:03:45.172Z,543.93
2022-11-01T00:03:55.178Z,543.82
2022-11-01T00:04:05.176Z,543.77
2022-11-01T00:04:15.176Z,543.85
2022-11-01T00:04:25.177Z,543.91
2022-11-01T00:04:35.180Z,543.93
2022-11-01T00:04:45.197Z,543.86
2022-11-01T00:04:55.177Z,543.79
2022-11-01T00:05:05.182Z,543.82
2022-11-01T00:05:15.181Z,543.78
2022-11-01T00:05:25.185Z,543.75
2022-11-01T00:05:35.185Z,543.80
2022-11-01T00:05:45.183Z,543.76
2022-11-01T00:05:55.182Z,543.75
2022-11-01T00:06:05.192Z,543.68
2022-11-01T00:06:15.182Z,543.73
2022-11-01T00:06:25.184Z,543.77
2022-11-01T00:06:35.189Z,543.81
2022-11-01T00:06:45.190Z,543.87
2022-11-01T00:06:55.200Z,543.93
2022-11-01T00:07:05.190Z,543.89
2022-11-01T00:07:15.195Z,543.91
2022-11-01T00:07:25.193Z,543.96
2022-11-01T00:07:35.190Z,544.06
2022-11-01T00:07:45.204Z,544.07
2022-11-01T00:07:55.188Z,544.21
2022-11-01T00:08:05.335Z,544.21
2022-11-01T00:08:15.195Z,544.17
2022-11-01T00:08:25.197Z,544.07
2022-11-01T00:08:35.190Z,544.09
2022-11-01T00:08:45.198Z,544.06
2022-11-01T00:08:55.197Z,544.01
2022-11-01T00:09:05.201Z,543.97
2022-11-01T00:09:15.201Z,543.91
2022-11-01T00:09:25.203Z,543.94
2022-11-01T00:09:35.199Z,543.88
2022-11-01T00:09:45.218Z,543.97
2022-11-01T00:09:55.200Z,543.93
2022-11-01T00:10:05.223Z,543.92
2022-11-01T00:10:15.201Z,544.03
2022-11-01T00:10:25.210Z,543.95
2022-11-01T00:10:35.188Z,544.01
2022-11-01T00:10:45.200Z,543.97
2022-11-01T00:10:55.204Z,543.92
2022-11-01T00:11:05.201Z,543.91
2022-11-01T00:11:15.188Z,543.93
2022-11-01T00:11:25.204Z,543.97
2022-11-01T00:11:35.214Z,543.94
2022-11-01T00:11:45.206Z,543.89
2022-11-01T00:11:55.206Z,543.84
2022-11-01T00:12:05.211Z,543.98
2022-11-01T00:12:15.207Z,543.98
2022-11-01T00:12:25.205Z,543.92
2022-11-01T00:12:35.214Z,543.96
2022-11-01T00:12:45.206Z,543.95
2022-11-01T00:12:55.210Z,543.89
2022-11-01T00:13:05.362Z,543.85
2022-11-01T00:13:15.209Z,543.95
2022-11-01T00:13:25.215Z,543.85
2022-11-01T00:13:35.218Z,543.81
2022-11-01T00:13:45.197Z,543.85
2022-11-01T00:13:55.217Z,543.80
2022-11-01T00:14:05.213Z,543.77
2022-11-01T00:14:15.216Z,543.71
2022-11-01T00:14:25.221Z,543.72
2022-11-01T00:14:35.213Z,543.68
2022-11-01T00:14:45.229Z,543.66
2022-11-01T00:14:55.219Z,543.66
2022-11-01T00:15:05.218Z,543.71
2022-11-01T00:15:15.224Z,543.79
2022-11-01T00:15:25.218Z,543.73
2022-11-01T00:15:35.220Z,543.78
2022-11-01T00:15:45.218Z,543.84
2022-11-01T00:15:55.222Z,544.02
2022-11-01T00:16:05.225Z,544.01
2022-11-01T00:16:15.222Z,543.90
2022-11-01T00:16:25.224Z,543.83
2022-11-01T00:16:35.224Z,543.81
2022-11-01T00:16:45.223Z,543.85
2022-11-01T00:16:55.229Z,543.79
2022-11-01T00:17:05.229Z,543.82
2022-11-01T00:17:15.225Z,543.79
2022-11-01T00:17:25.244Z,543.81
2022-11-01T00:17:35.230Z,543.75
2022-11-01T00:17:45.232Z,543.92
2022-11-01T00:17:55.229Z,543.93
2022-11-01T00:18:05.237Z,543.91
2022-11-01T00:18:15.234Z,543.88
2022-11-01T00:18:25.233Z,543.81
2022-11-01T00:18:35.236Z,543.77
2022-11-01T00:18:45.238Z,543.55
2022-11-01T00:18:55.237Z,543.50
2022-11-01T00:19:05.238Z,543.74
2022-11-01T00:19:15.236Z,543.80
2022-11-01T00:19:25.239Z,543.73
2022-11-01T00:19:35.238Z,543.85
2022-11-01T00:19:45.241Z,543.91
2022-11-01T00:19:55.250Z,544.07
2022-11-01T00:20:05.248Z,544.06
2022-11-01T00:20:15.239Z,543.97
2022-11-01T00:20:25.249Z,543.95
2022-11-01T00:20:35.243Z,543.78
2022-11-01T00:20:45.241Z,543.60
2022-11-01T00:20:55.243Z,543.52
2022-11-01T00:21:05.227Z,543.52
2022-11-01T00:21:15.247Z,543.46
2022-11-01T00:21:25.246Z,543.35
2022-11-01T00:21:35.243Z,543.54
2022-11-01T00:21:45.246Z,543.48
2022-11-01T00:21:55.251Z,543.38
2022-11-01T00:22:05.248Z,543.43
2022-11-01T00:22:15.234Z,543.54
2022-11-01T00:22:25.249Z,543.51
2022-11-01T00:22:35.254Z,543.51
2022-11-01T00:22:45.251Z,543.54
2022-11-01T00:22:55.255Z,543.52
2022-11-01T00:23:05.453Z,543.49
2022-11-01T00:23:15.258Z,543.53
2022-11-01T00:23:25.261Z,543.55
2022-11-01T00:23:35.256Z,543.49
2022-11-01T00:23:45.263Z,543.48
2022-11-01T00:23:55.265Z,543.61
2022-11-01T00:24:05.265Z,543.62
2022-11-01T00:24:15.258Z,543.59
2022-11-01T00:24:25.264Z,543.51
2022-11-01T00:24:35.260Z,543.47
2022-11-01T00:24:45.280Z,543.45
2022-11-01T00:24:55.263Z,543.50
2022-11-01T00:25:05.269Z,543.54
2022-11-01T00:25:15.263Z,543.63
2022-11-01T00:25:25.271Z,543.59
2022-11-01T00:25:35.249Z,543.62
2022-11-01T00:25:45.265Z,543.69
2022-11-01T00:25:55.267Z,543.56
2022-11-01T00:26:05.267Z,543.56
2022-11-01T00:26:15.268Z,543.75
2022-11-01T00:26:25.278Z,543.89
2022-11-01T00:26:35.345Z,543.89
2022-11-01T00:26:45.297Z,543.93
2022-11-01T00:26:55.284Z,543.89
2022-11-01T00:27:05.273Z,544.00
2022-11-01T00:27:15.272Z,544.00
2022-11-01T00:27:25.279Z,543.93
2022-11-01T00:27:35.273Z,543.90
2022-11-01T00:27:45.286Z,544.05
2022-11-01T00:27:55.275Z,544.07
2022-11-01T00:28:05.446Z,543.94
2022-11-01T00:28:15.280Z,544.15
2022-11-01T00:28:25.281Z,544.12
2022-11-01T00:28:35.276Z,544.01
2022-11-01T00:28:45.276Z,544.15
2022-11-01T00:28:55.276Z,544.31
2022-11-01T00:29:05.279Z,544.38
2022-11-01T00:29:15.278Z,544.26
2022-11-01T00:29:25.285Z,544.22
2022-11-01T00:29:35.283Z,544.26
2022-11-01T00:29:45.315Z,544.18
2022-11-01T00:29:55.283Z,544.23
2022-11-01T00:30:05.285Z,544.23
2022-11-01T00:30:15.290Z,544.07
2022-11-01T00:30:25.285Z,543.99
2022-11-01T00:30:35.288Z,544.06
2022-11-01T00:30:45.297Z,544.26
2022-11-01T00:30:55.322Z,544.35
2022-11-01T00:31:07.658Z,544.33
2022-11-01T00:31:16.296Z,544.31
2022-11-01T00:31:25.296Z,544.22
2022-11-01T00:31:35.291Z,544.18
2022-11-01T00:31:45.294Z,544.11
2022-11-01T00:31:55.306Z,544.08
2022-11-01T00:32:05.292Z,544.11
2022-11-01T00:32:15.279Z,544.11
2022-11-01T00:32:25.304Z,544.08
2022-11-01T00:32:35.299Z,544.23
2022-11-01T00:32:45.294Z,544.24
2022-11-01T00:32:55.294Z,544.33
2022-11-01T00:33:05.300Z,544.32
2022-11-01T00:33:15.307Z,544.27
2022-11-01T00:33:25.301Z,544.35
2022-11-01T00:33:35.299Z,544.29
2022-11-01T00:33:45.307Z,544.34
2022-11-01T00:33:55.304Z,544.32
2022-11-01T00:34:05.308Z,544.26
2022-11-01T00:34:15.304Z,544.30
2022-11-01T00:34:25.306Z,544.49
2022-11-01T00:34:35.302Z,544.54
2022-11-01T00:34:45.306Z,544.53
2022-11-01T00:34:55.308Z,544.50
2022-11-01T00:35:05.310Z,544.54
2022-11-01T00:35:15.307Z,544.46
2022-11-01T00:35:25.314Z,544.44
2022-11-01T00:35:35.307Z,544.30
2022-11-01T00:35:45.313Z,544.41
2022-11-01T00:35:55.308Z,544.32
2022-11-01T00:36:05.316Z,544.29
2022-11-01T00:36:15.312Z,544.17
2022-11-01T00:36:25.309Z,544.26
2022-11-01T00:36:35.311Z,544.16
2022-11-01T00:36:45.309Z,544.06
2022-11-01T00:36:55.308Z,544.21
2022-11-01T00:37:05.321Z,544.08
2022-11-01T00:37:15.340Z,544.13
2022-11-01T00:37:25.310Z,544.04
2022-11-01T00:37:35.315Z,544.18
2022-11-01T00:37:45.319Z,544.08
2022-11-01T00:37:55.320Z,544.19
2022-11-01T00:38:05.312Z,544.14
2022-11-01T00:38:15.314Z,544.23
2022-11-01T00:38:25.315Z,544.27
2022-11-01T00:38:35.307Z,544.26
2022-11-01T00:38:45.317Z,544.15
2022-11-01T00:38:55.315Z,544.22
2022-11-01T00:39:05.322Z,544.29
2022-11-01T00:39:15.325Z,544.19
2022-11-01T00:39:30.370Z,544.23
2022-11-01T00:39:36.324Z,544.38
2022-11-01T00:39:45.321Z,544.34
2022-11-01T00:39:55.331Z,544.24
2022-11-01T00:40:05.324Z,544.28
2022-11-01T00:40:15.323Z,544.40
2022-11-01T00:40:25.323Z,544.32
2022-11-01T00:40:35.338Z,544.33
2022-11-01T00:40:45.334Z,544.43
2022-11-01T00:40:55.324Z,544.46
2022-11-01T00:41:05.324Z,544.51
2022-11-01T00:41:15.351Z,544.51
2022-11-01T00:41:25.331Z,544.53
2022-11-01T00:41:35.330Z,544.50
2022-11-01T00:41:45.329Z,544.61
2022-11-01T00:41:55.332Z,544.71
2022-11-01T00:42:05.335Z,544.67
2022-11-01T00:42:15.344Z,544.70
2022-11-01T00:42:25.336Z,544.69
2022-11-01T00:42:35.334Z,544.68
2022-11-01T00:42:45.345Z,544.64
2022-11-01T00:42:55.334Z,544.54
2022-11-01T00:43:05.411Z,544.38
2022-11-01T00:43:15.397Z,544.42
2022-11-01T00:43:25.334Z,544.45
2022-11-01T00:43:35.335Z,544.29
2022-11-01T00:43:45.335Z,544.22
2022-11-01T00:43:55.343Z,544.27
2022-11-01T00:44:05.338Z,544.07
2022-11-01T00:44:15.336Z,544.05
2022-11-01T00:44:25.342Z,544.11
2022-11-01T00:44:35.342Z,544.15
2022-11-01T00:44:45.334Z,544.01
2022-11-01T00:44:55.339Z,544.07
2022-11-01T00:45:05.337Z,544.08
2022-11-01T00:45:15.375Z,544.06
2022-11-01T00:45:25.342Z,544.02
2022-11-01T00:45:35.341Z,544.01
2022-11-01T00:45:45.346Z,544.06
2022-11-01T00:45:55.339Z,544.17
2022-11-01T00:46:05.349Z,544.31
2022-11-01T00:46:15.357Z,544.45
2022-11-01T00:46:25.347Z,544.50
2022-11-01T00:46:35.347Z,544.47
2022-11-01T00:46:45.344Z,544.46
2022-11-01T00:46:55.348Z,544.58
2022-11-01T00:47:05.348Z,544.56
2022-11-01T00:47:15.361Z,544.47
2022-11-01T00:47:25.350Z,544.42
2022-11-01T00:47:35.351Z,544.45
2022-11-01T00:47:45.335Z,544.45
2022-11-01T00:47:55.349Z,544.37
2022-11-01T00:48:05.363Z,544.49
2022-11-01T00:48:15.380Z,544.51
2022-11-01T00:48:25.356Z,544.42
2022-11-01T00:48:35.356Z,544.39
2022-11-01T00:48:45.356Z,544.35
2022-11-01T00:48:55.355Z,544.39
2022-11-01T00:49:05.354Z,544.40
2022-11-01T00:49:15.366Z,544.38
2022-11-01T00:49:25.362Z,544.38
2022-11-01T00:49:35.366Z,544.37
2022-11-01T00:49:45.359Z,544.35
2022-11-01T00:49:55.372Z,544.24
2022-11-01T00:50:05.364Z,544.45
2022-11-01T00:50:15.362Z,544.40
2022-11-01T00:50:25.363Z,544.45
2022-11-01T00:50:35.360Z,544.49
2022-11-01T00:50:45.358Z,544.53
2022-11-01T00:50:55.344Z,544.51
2022-11-01T00:51:05.362Z,544.57
2022-11-01T00:51:15.384Z,544.70
2022-11-01T00:51:25.365Z,544.87
2022-11-01T00:51:35.365Z,544.92
2022-11-01T00:51:45.364Z,544.95
2022-11-01T00:51:55.370Z,544.93
2022-11-01T00:52:05.367Z,544.76
2022-11-01T00:52:15.367Z,544.63
2022-11-01T00:52:25.387Z,544.47
2022-11-01T00:52:35.378Z,544.38
2022-11-01T00:52:45.369Z,544.38
2022-11-01T00:52:55.375Z,544.32
2022-11-01T00:53:05.369Z,544.40
2022-11-01T00:53:15.375Z,544.42
2022-11-01T00:53:25.376Z,544.39
2022-11-01T00:53:35.374Z,544.39
2022-11-01T00:53:45.371Z,544.50
2022-11-01T00:53:55.372Z,544.42
2022-11-01T00:54:05.379Z,544.58
2022-11-01T00:54:15.377Z,544.58
2022-11-01T00:54:25.377Z,544.49
2022-11-01T00:54:35.378Z,544.40
2022-11-01T00:54:45.377Z,544.41
2022-11-01T00:54:55.381Z,544.35
2022-11-01T00:55:05.378Z,544.20
2022-11-01T00:55:15.385Z,544.20
2022-11-01T00:55:25.379Z,544.20
2022-11-01T00:55:35.381Z,544.20
2022-11-01T00:55:45.381Z,544.14
2022-11-01T00:55:55.381Z,544.04
2022-11-01T00:56:05.383Z,544.09
2022-11-01T00:56:15.385Z,544.19
2022-11-01T00:56:25.411Z,544.19
2022-11-01T00:56:35.384Z,544.21
2022-11-01T00:56:45.384Z,544.34
2022-11-01T00:56:55.384Z,544.34
2022-11-01T00:57:05.397Z,544.44
2022-11-01T00:57:15.385Z,544.51
2022-11-01T00:57:25.396Z,544.51
2022-11-01T00:57:35.392Z,544.55
2022-11-01T00:57:45.392Z,544.47
2022-11-01T00:57:55.404Z,544.38
2022-11-01T00:58:05.519Z,544.45
2022-11-01T00:58:15.398Z,544.61
2022-11-01T00:58:25.398Z,544.67
2022-11-01T00:58:35.397Z,544.64
2022-11-01T00:58:45.400Z,544.76
2022-11-01T00:58:55.395Z,544.75
2022-11-01T00:59:05.400Z,544.86
2022-11-01T00:59:15.398Z,544.76
2022-11-01T00:59:25.405Z,544.76
2022-11-01T00:59:38.300Z,544.81
2022-11-01T00:59:46.415Z,544.86
2022-11-01T00:59:55.430Z,544.92
2022-11-01T01:00:05.410Z,544.94
2022-11-01T01:00:15.405Z,545.05
2022-11-01T01:00:25.450Z,544.97
2022-11-01T01:00:35.402Z,545.05
2022-11-01T01:00:45.505Z,544.87
2022-11-01T01:00:55.466Z,544.88
2022-11-01T01:01:05.637Z,544.99
2022-11-01T01:01:15.540Z,544.89
2022-11-01T01:01:25.512Z,544.95
2022-11-01T01:01:35.535Z,544.95
2022-11-01T01:01:45.536Z,544.98
2022-11-01T01:01:55.531Z,544.97
2022-11-01T01:02:05.628Z,544.95
2022-11-01T01:02:15.653Z,545.03
2022-11-01T01:02:25.432Z,544.99
2022-11-01T01:02:35.497Z,544.90
2022-11-01T01:02:45.414Z,544.86
2022-11-01T01:02:55.413Z,544.97
2022-11-01T01:03:05.414Z,544.95
2022-11-01T01:03:15.420Z,544.91
2022-11-01T01:03:25.420Z,544.87
2022-11-01T01:03:35.417Z,544.88
2022-11-01T01:03:45.417Z,545.00
2022-11-01T01:03:55.428Z,545.03
2022-11-01T01:04:05.429Z,545.02
2022-11-01T01:04:15.423Z,545.14
2022-11-01T01:04:25.422Z,545.17
2022-11-01T01:04:35.421Z,545.16
2022-11-01T01:04:45.425Z,545.16
2022-11-01T01:04:55.452Z,545.29
2022-11-01T01:05:05.427Z,545.31
2022-11-01T01:05:15.426Z,545.31
2022-11-01T01:05:25.432Z,545.40
2022-11-01T01:05:35.432Z,545.45
2022-11-01T01:05:45.432Z,545.44
2022-11-01T01:05:55.468Z,545.39
2022-11-01T01:06:05.436Z,545.53
2022-11-01T01:06:15.454Z,545.51
2022-11-01T01:06:25.438Z,545.60
2022-11-01T01:06:35.434Z,545.64
2022-11-01T01:06:45.441Z,545.67
2022-11-01T01:06:55.431Z,545.70
2022-11-01T01:07:05.496Z,545.80
2022-11-01T01:07:15.442Z,545.77
2022-11-01T01:07:25.436Z,545.76
2022-11-01T01:07:35.438Z,545.80
2022-11-01T01:07:45.441Z,545.75
2022-11-01T01:07:55.439Z,545.73
2022-11-01T01:08:05.442Z,545.83
2022-11-01T01:08:15.442Z,545.83
2022-11-01T01:08:25.469Z,545.80
2022-11-01T01:08:35.444Z,545.87
2022-11-01T01:08:45.453Z,545.83
2022-11-01T01:08:55.447Z,545.79
2022-11-01T01:09:05.449Z,545.70
2022-11-01T01:09:15.473Z,545.79
2022-11-01T01:09:25.447Z,545.83
2022-11-01T01:09:35.451Z,545.82
2022-11-01T01:09:45.459Z,545.69
2022-11-01T01:09:55.467Z,545.68
2022-11-01T01:10:05.459Z,545.72
2022-11-01T01:10:15.456Z,545.68
2022-11-01T01:10:25.449Z,545.63
2022-11-01T01:10:35.452Z,545.63
2022-11-01T01:10:45.453Z,545.70
2022-11-01T01:10:55.452Z,545.63
2022-11-01T01:11:05.454Z,545.61
2022-11-01T01:11:15.460Z,545.71
2022-11-01T01:11:25.456Z,545.57
2022-11-01T01:11:35.467Z,545.59
2022-11-01T01:11:45.465Z,545.60
2022-11-01T01:11:55.459Z,545.56
2022-11-01T01:12:05.461Z,545.63
2022-11-01T01:12:15.468Z,545.60
2022-11-01T01:12:25.467Z,545.67
2022-11-01T01:12:35.460Z,545.60
2022-11-01T01:12:45.471Z,545.57
2022-11-01T01:12:55.471Z,545.57
2022-11-01T01:13:05.702Z,545.67
2022-11-01T01:13:15.476Z,545.76
2022-11-01T01:13:25.479Z,545.77
2022-11-01T01:13:35.466Z,545.75
2022-11-01T01:13:45.480Z,545.71
2022-11-01T01:13:55.480Z,545.77
2022-11-01T01:14:05.467Z,545.74
2022-11-01T01:14:15.472Z,545.72
2022-11-01T01:14:29.893Z,545.71
2022-11-01T01:14:36.473Z,545.70
2022-11-01T01:14:45.475Z,545.82
2022-11-01T01:14:55.484Z,545.82
2022-11-01T01:15:05.479Z,545.78
2022-11-01T01:15:15.474Z,545.78
2022-11-01T01:15:25.479Z,545.77
2022-11-01T01:15:35.473Z,545.85
2022-11-01T01:15:45.478Z,545.84
2022-11-01T01:15:55.476Z,545.81
2022-11-01T01:16:05.486Z,545.81
2022-11-01T01:16:15.483Z,545.89
2022-11-01T01:16:25.478Z,545.94
2022-11-01T01:16:35.550Z,545.86
2022-11-01T01:16:45.490Z,545.89
2022-11-01T01:16:55.495Z,545.95
2022-11-01T01:17:05.485Z,545.94
2022-11-01T01:17:15.485Z,545.99
2022-11-01T01:17:27.637Z,546.09
2022-11-01T01:17:35.485Z,546.02
2022-11-01T01:17:45.483Z,546.07
2022-11-01T01:17:55.487Z,546.06
2022-11-01T01:18:05.561Z,546.05
2022-11-01T01:18:15.488Z,546.18
2022-11-01T01:18:25.489Z,546.22
2022-11-01T01:18:35.490Z,546.19
2022-11-01T01:18:45.489Z,546.20
2022-11-01T01:18:55.488Z,546.15
2022-11-01T01:19:05.496Z,546.20
2022-11-01T01:19:15.491Z,546.27
2022-11-01T01:19:25.496Z,546.40
2022-11-01T01:19:35.491Z,546.33
2022-11-01T01:19:45.492Z,546.30
2022-11-01T01:19:55.507Z,546.37
2022-11-01T01:20:05.496Z,546.43
2022-11-01T01:20:15.494Z,546.37
2022-11-01T01:20:25.499Z,546.34
2022-11-01T01:20:35.500Z,546.31
2022-11-01T01:20:45.498Z,546.27
2022-11-01T01:20:55.499Z,546.35
2022-11-01T01:21:05.509Z,546.29
2022-11-01T01:21:15.483Z,546.29
2022-11-01T01:21:25.501Z,546.37
2022-11-01T01:21:35.509Z,546.32
2022-11-01T01:21:45.507Z,546.28
2022-11-01T01:21:55.501Z,546.22
2022-11-01T01:22:05.509Z,546.21
2022-11-01T01:22:15.506Z,546.19
2022-11-01T01:22:25.505Z,546.07
2022-11-01T01:22:35.516Z,546.22
2022-11-01T01:22:45.514Z,546.18
2022-11-01T01:22:55.508Z,546.11
2022-11-01T01:23:05.504Z,546.05
2022-11-01T01:23:15.505Z,546.16
2022-11-01T01:23:25.508Z,546.05
2022-11-01T01:23:35.515Z,546.07
2022-11-01T01:23:45.508Z,546.11
2022-11-01T01:23:55.511Z,546.09
2022-11-01T01:24:05.497Z,546.07
2022-11-01T01:24:15.516Z,546.10
2022-11-01T01:24:25.516Z,546.21
2022-11-01T01:24:35.516Z,546.22
2022-11-01T01:24:45.516Z,546.16
2022-11-01T01:24:55.550Z,546.27
2022-11-01T01:25:05.516Z,546.31
2022-11-01T01:25:15.515Z,546.22
2022-11-01T01:25:25.518Z,546.14
2022-11-01T01:25:35.518Z,546.26
2022-11-01T01:25:45.521Z,546.23
2022-11-01T01:25:55.519Z,546.20
2022-11-01T01:26:05.506Z,546.15
2022-11-01T01:26:15.521Z,546.12
2022-11-01T01:26:25.525Z,546.14
2022-11-01T01:26:35.526Z,546.13
2022-11-01T01:26:45.525Z,546.18
2022-11-01T01:26:55.525Z,546.21
2022-11-01T01:27:05.529Z,546.18
2022-11-01T01:27:15.523Z,546.23
2022-11-01T01:27:25.527Z,546.21
2022-11-01T01:27:35.525Z,546.19
2022-11-01T01:27:46.207Z,546.17
2022-11-01T01:27:55.529Z,546.26
2022-11-01T01:28:05.693Z,546.31
2022-11-01T01:28:15.529Z,546.30
2022-11-01T01:28:25.538Z,546.21
2022-11-01T01:28:40.139Z,546.18
2022-11-01T01:28:46.570Z,546.24
2022-11-01T01:28:55.536Z,546.26
2022-11-01T01:29:05.532Z,546.25
2022-11-01T01:29:15.538Z,546.29
2022-11-01T01:29:25.539Z,546.25
2022-11-01T01:29:35.539Z,546.32
2022-11-01T01:29:45.534Z,546.28
2022-11-01T01:29:55.545Z,546.33
2022-11-01T01:30:05.548Z,546.37
2022-11-01T01:30:15.539Z,546.41
2022-11-01T01:30:25.540Z,546.45
2022-11-01T01:30:35.537Z,546.44
2022-11-01T01:30:45.540Z,546.49
2022-11-01T01:30:55.543Z,546.54
2022-11-01T01:31:05.541Z,546.64
2022-11-01T01:31:15.541Z,546.56
2022-11-01T01:31:25.546Z,546.64
2022-11-01T01:31:35.543Z,546.77
2022-11-01T01:31:45.546Z,546.72
2022-11-01T01:31:55.554Z,546.85
2022-11-01T01:32:05.544Z,546.82
2022-11-01T01:32:15.543Z,546.84
2022-11-01T01:32:25.545Z,546.91
2022-11-01T01:32:35.546Z,546.90
2022-11-01T01:32:45.560Z,546.98
2022-11-01T01:32:55.555Z,546.96
2022-11-01T01:33:05.627Z,547.08
2022-11-01T01:33:15.559Z,547.09
2022-11-01T01:33:25.547Z,547.08
2022-11-01T01:33:35.555Z,547.22
2022-11-01T01:33:45.550Z,547.26
2022-11-01T01:33:55.575Z,547.26
2022-11-01T01:34:05.551Z,547.29
2022-11-01T01:34:15.549Z,547.38
2022-11-01T01:34:25.552Z,547.42
2022-11-01T01:34:35.554Z,547.40
2022-11-01T01:34:45.551Z,547.50
2022-11-01T01:34:55.553Z,547.43
2022-11-01T01:35:05.559Z,547.51
2022-11-01T01:35:15.564Z,547.52
2022-11-01T01:35:25.554Z,547.58
2022-11-01T01:35:35.557Z,547.50
2022-11-01T01:35:45.554Z,547.57
2022-11-01T01:35:55.557Z,547.59
2022-11-01T01:36:05.559Z,547.54
2022-11-01T01:36:15.559Z,547.54
2022-11-01T01:36:25.556Z,547.52
2022-11-01T01:36:35.557Z,547.54
2022-11-01T01:36:45.563Z,547.56
2022-11-01T01:36:55.563Z,547.52
2022-11-01T01:37:05.563Z,547.62
2022-11-01T01:37:15.548Z,547.58
2022-11-01T01:37:25.562Z,547.53
2022-11-01T01:37:35.564Z,547.51
2022-11-01T01:37:45.580Z,547.61
2022-11-01T01:37:55.568Z,547.56
2022-11-01T01:38:05.734Z,547.54
2022-11-01T01:38:15.577Z,547.59
2022-11-01T01:38:25.571Z,547.60
2022-11-01T01:38:35.553Z,547.54
2022-11-01T01:38:45.571Z,547.53
2022-11-01T01:38:55.572Z,547.59
2022-11-01T01:39:05.572Z,547.60
2022-11-01T01:39:15.584Z,547.68
2022-11-01T01:39:25.574Z,547.74
2022-11-01T01:39:35.574Z,547.81
2022-11-01T01:39:45.574Z,547.83
2022-11-01T01:39:55.563Z,547.83
2022-11-01T01:40:05.582Z,548.00
2022-11-01T01:40:15.575Z,547.95
2022-11-01T01:40:25.583Z,547.99
2022-11-01T01:40:35.588Z,548.09
2022-11-01T01:40:45.582Z,548.18
2022-11-01T01:40:55.581Z,548.10
2022-11-01T01:41:05.582Z,548.15
2022-11-01T01:41:15.581Z,548.09
2022-11-01T01:41:25.588Z,548.10
2022-11-01T01:41:35.582Z,548.13
2022-11-01T01:41:45.582Z,548.20
2022-11-01T01:41:55.585Z,548.26
2022-11-01T01:42:05.587Z,548.28
2022-11-01T01:42:15.587Z,548.20
2022-11-01T01:42:25.592Z,548.32
2022-11-01T01:42:35.592Z,548.30
2022-11-01T01:42:45.589Z,548.28
2022-11-01T01:42:55.593Z,548.31
2022-11-01T01:43:05.591Z,548.30
2022-11-01T01:43:15.593Z,548.43
2022-11-01T01:43:25.591Z,548.47
2022-11-01T01:43:35.603Z,548.41
2022-11-01T01:43:45.595Z,548.38
2022-11-01T01:43:55.597Z,548.44
2022-11-01T01:44:05.582Z,548.44
2022-11-01T01:44:15.596Z,548.43
2022-11-01T01:44:25.596Z,548.51
2022-11-01T01:44:35.600Z,548.44
2022-11-01T01:44:45.596Z,548.37
2022-11-01T01:44:55.606Z,548.45
2022-11-01T01:45:05.605Z,548.37
2022-11-01T01:45:15.603Z,548.49
2022-11-01T01:45:25.603Z,548.50
2022-11-01T01:45:35.604Z,548.51
2022-11-01T01:45:45.605Z,548.46
2022-11-01T01:45:55.605Z,548.58
2022-11-01T01:46:05.608Z,548.67
2022-11-01T01:46:15.606Z,548.75
2022-11-01T01:46:25.606Z,548.77
2022-11-01T01:46:35.606Z,548.70
2022-11-01T01:46:45.607Z,548.68
2022-11-01T01:46:55.607Z,548.77
2022-11-01T01:47:05.611Z,548.74
2022-11-01T01:47:15.607Z,548.83
2022-11-01T01:47:25.612Z,548.75
2022-11-01T01:47:35.611Z,548.78
2022-11-01T01:47:45.611Z,548.71
2022-11-01T01:47:55.620Z,548.64
2022-11-01T01:48:05.616Z,548.60
2022-11-01T01:48:15.598Z,548.60
2022-11-01T01:48:25.612Z,548.69
2022-11-01T01:48:35.617Z,548.76
2022-11-01T01:48:45.615Z,548.73
2022-11-01T01:48:55.616Z,548.75
2022-11-01T01:49:05.618Z,548.75
2022-11-01T01:49:15.614Z,548.75
2022-11-01T01:49:25.619Z,548.85
2022-11-01T01:49:38.677Z,548.79
2022-11-01T01:49:46.694Z,548.70
2022-11-01T01:49:55.624Z,548.77
2022-11-01T01:50:05.634Z,548.85
2022-11-01T01:50:15.619Z,548.84
2022-11-01T01:50:25.621Z,548.91
2022-11-01T01:50:35.627Z,548.97
2022-11-01T01:50:45.624Z,549.02
2022-11-01T01:50:55.624Z,549.04
2022-11-01T01:51:05.633Z,549.13
2022-11-01T01:51:15.623Z,549.15
2022-11-01T01:51:25.623Z,549.16
2022-11-01T01:51:35.625Z,549.16
2022-11-01T01:51:45.628Z,549.28
2022-11-01T01:51:55.626Z,549.32
2022-11-01T01:52:05.627Z,549.38
2022-11-01T01:52:15.629Z,549.46
2022-11-01T01:52:25.630Z,549.39
2022-11-01T01:52:35.638Z,549.47
2022-11-01T01:52:45.635Z,549.52
2022-11-01T01:52:55.634Z,549.52
2022-11-01T01:53:05.963Z,549.61
2022-11-01T01:53:15.634Z,549.57
2022-11-01T01:53:26.576Z,549.64
2022-11-01T01:53:35.637Z,549.65
2022-11-01T01:53:45.636Z,549.64
2022-11-01T01:53:55.637Z,549.63
2022-11-01T01:54:05.637Z,549.64
2022-11-01T01:54:15.646Z,549.75
2022-11-01T01:54:25.662Z,549.69
2022-11-01T01:54:35.641Z,549.75
2022-11-01T01:54:45.642Z,549.68
2022-11-01T01:54:55.646Z,549.78
2022-11-01T01:55:05.644Z,549.80
2022-11-01T01:55:15.647Z,549.72
2022-11-01T01:55:25.643Z,549.80
2022-11-01T01:55:35.631Z,549.80
2022-11-01T01:55:45.645Z,549.81
2022-11-01T01:55:55.649Z,549.82
2022-11-01T01:56:05.647Z,549.92
2022-11-01T01:56:15.649Z,549.85
2022-11-01T01:56:25.650Z,549.86
2022-11-01T01:56:35.676Z,549.98
2022-11-01T01:56:45.658Z,549.98
2022-11-01T01:56:55.650Z,550.01
2022-11-01T01:57:05.658Z,550.02
2022-11-01T01:57:15.653Z,549.96
2022-11-01T01:57:25.653Z,550.00
2022-11-01T01:57:35.652Z,549.95
2022-11-01T01:57:45.655Z,550.02
2022-11-01T01:57:55.655Z,550.04
2022-11-01T01:58:05.655Z,550.07
2022-11-01T01:58:15.655Z,550.05
2022-11-01T01:58:25.667Z,550.03
2022-11-01T01:58:35.654Z,550.06
2022-11-01T01:58:45.709Z,550.10
2022-11-01T01:58:55.663Z,550.12
2022-11-01T01:59:05.667Z,550.16
2022-11-01T01:59:15.662Z,550.14
2022-11-01T01:59:25.662Z,550.13
2022-11-01T01:59:35.659Z,550.15
2022-11-01T01:59:45.660Z,550.18
2022-11-01T01:59:55.671Z,550.19
2022-11-01T02:00:05.669Z,550.20
2022-11-01T02:00:15.660Z,550.16
2022-11-01T02:00:25.668Z,550.23
2022-11-01T02:00:35.664Z,550.18
2022-11-01T02:00:45.729Z,550.23
2022-11-01T02:00:55.698Z,550.24
2022-11-01T02:01:05.713Z,550.21
2022-11-01T02:01:15.886Z,550.18
2022-11-01T02:01:25.801Z,550.18
2022-11-01T02:01:35.886Z,550.18
2022-11-01T02:01:45.790Z,550.18
2022-11-01T02:01:55.785Z,550.22
2022-11-01T02:02:05.690Z,550.32
2022-11-01T02:02:15.770Z,550.34
2022-11-01T02:02:25.721Z,550.31
2022-11-01T02:02:35.677Z,550.35
2022-11-01T02:02:45.742Z,550.33
2022-11-01T02:02:55.681Z,550.30
2022-11-01T02:03:05.678Z,550.32
2022-11-01T02:03:15.676Z,550.30
2022-11-01T02:03:25.676Z,550.30
2022-11-01T02:03:35.676Z,550.21
2022-11-01T02:03:45.721Z,550.15
2022-11-01T02:03:55.687Z,550.27
2022-11-01T02:04:05.678Z,550.33
2022-11-01T02:04:15.679Z,550.29
2022-11-01T02:04:25.680Z,550.39
2022-11-01T02:04:35.678Z,550.29
2022-11-01T02:04:45.668Z,550.30